Cement City, Michigan
Current Conditions -  °F | °C
As of 12:56 PM on Tuesday 21 Oct 2014 (Local Time) from KJXN Reporting Station
Overcast Overcast  
Wind Chill: 42°   Ceiling: 2300
Heat Index: 47°   Visibility: 10mi
Dew Point: 40°   Wind: 12mph
Humidity: 77%   Direction: 30°NNE
Pressure: 30.08"   Gusts: NA
Location:  42.07°N, 84.33°W
Report Text: KJXN 211656Z 03010KT 10SM OVC023 08/04 A3008 RMK AO2 SLP191 T00830044
Loading
Personal Weather Stations






























Interactive Weather Map
Tropical Storm Tracking
New forecast layout! Learn more

10-Day Weather Forecast

Advertisements
Track Severe Weather on mobile